sensor_id;sensor_type;location;lat;lon;timestamp;P1;durP1;ratioP1;P2;durP2;ratioP2
53108;SDS011;39007;53.090;6.074;2024-03-23T00:55:33;32.65;;;7.40;;
53108;SDS011;39007;53.090;6.074;2024-03-23T00:57:59;36.88;;;7.10;;
53108;SDS011;39007;53.090;6.074;2024-03-23T01:00:25;38.33;;;7.43;;
53108;SDS011;39007;53.090;6.074;2024-03-23T01:02:51;31.65;;;6.75;;
53108;SDS011;39007;53.090;6.074;2024-03-23T01:05:17;30.98;;;7.40;;
53108;SDS011;39007;53.090;6.074;2024-03-23T01:07:43;31.55;;;6.95;;
53108;SDS011;39007;53.090;6.074;2024-03-23T01:10:09;30.60;;;6.68;;
53108;SDS011;39007;53.090;6.074;2024-03-23T01:12:35;31.15;;;6.25;;
53108;SDS011;39007;53.090;6.074;2024-03-23T01:15:02;28.23;;;6.28;;
53108;SDS011;39007;53.090;6.074;2024-03-23T01:17:28;38.97;;;7.07;;
53108;SDS011;39007;53.090;6.074;2024-03-23T01:19:54;35.30;;;7.38;;
53108;SDS011;39007;53.090;6.074;2024-03-23T01:22:20;38.40;;;7.20;;
53108;SDS011;39007;53.090;6.074;2024-03-23T01:24:46;37.38;;;6.47;;
53108;SDS011;39007;53.090;6.074;2024-03-23T01:27:12;35.22;;;6.78;;
53108;SDS011;39007;53.090;6.074;2024-03-23T01:29:38;32.47;;;6.60;;
53108;SDS011;39007;53.090;6.074;2024-03-23T01:32:04;31.45;;;7.07;;
53108;SDS011;39007;53.090;6.074;2024-03-23T01:34:31;30.25;;;6.40;;
53108;SDS011;39007;53.090;6.074;2024-03-23T01:36:57;28.25;;;6.10;;
53108;SDS011;39007;53.090;6.074;2024-03-23T01:39:23;36.88;;;7.18;;
53108;SDS011;39007;53.090;6.074;2024-03-23T01:41:49;30.48;;;6.72;;
53108;SDS011;39007;53.090;6.074;2024-03-23T01:44:16;35.80;;;7.00;;
53108;SDS011;39007;53.090;6.074;2024-03-23T01:46:42;28.02;;;6.95;;
53108;SDS011;39007;53.090;6.074;2024-03-23T01:49:08;26.52;;;6.28;;
53108;SDS011;39007;53.090;6.074;2024-03-23T01:51:35;22.92;;;5.25;;
53108;SDS011;39007;53.090;6.074;2024-03-23T01:54:02;33.22;;;7.25;;
53108;SDS011;39007;53.090;6.074;2024-03-23T01:56:29;27.67;;;5.80;;
53108;SDS011;39007;53.090;6.074;2024-03-23T01:58:55;30.67;;;6.70;;
53108;SDS011;39007;53.090;6.074;2024-03-23T02:01:22;26.83;;;6.32;;
53108;SDS011;39007;53.090;6.074;2024-03-23T02:03:48;34.17;;;6.70;;
53108;SDS011;39007;53.090;6.074;2024-03-23T02:06:14;27.08;;;6.70;;
53108;SDS011;39007;53.090;6.074;2024-03-23T02:08:40;28.20;;;5.80;;
53108;SDS011;39007;53.090;6.074;2024-03-23T02:11:06;29.60;;;6.50;;
53108;SDS011;39007;53.090;6.074;2024-03-23T02:13:32;29.85;;;6.10;;
53108;SDS011;39007;53.090;6.074;2024-03-23T02:15:58;25.63;;;5.25;;
53108;SDS011;39007;53.090;6.074;2024-03-23T02:18:24;29.33;;;5.68;;
53108;SDS011;39007;53.090;6.074;2024-03-23T02:20:50;30.38;;;6.15;;
53108;SDS011;39007;53.090;6.074;2024-03-23T02:23:17;27.55;;;5.75;;
53108;SDS011;39007;53.090;6.074;2024-03-23T02:25:43;26.02;;;5.43;;
53108;SDS011;39007;53.090;6.074;2024-03-23T02:28:09;29.60;;;6.47;;
53108;SDS011;39007;53.090;6.074;2024-03-23T02:30:36;26.10;;;5.55;;
53108;SDS011;39007;53.090;6.074;2024-03-23T02:33:02;25.05;;;4.93;;
53108;SDS011;39007;53.090;6.074;2024-03-23T02:35:28;27.00;;;4.60;;
53108;SDS011;39007;53.090;6.074;2024-03-23T02:37:54;27.42;;;5.35;;
53108;SDS011;39007;53.090;6.074;2024-03-23T02:40:22;22.52;;;5.25;;
53108;SDS011;39007;53.090;6.074;2024-03-23T02:42:49;23.30;;;5.13;;
53108;SDS011;39007;53.090;6.074;2024-03-23T02:45:15;29.85;;;5.47;;
53108;SDS011;39007;53.090;6.074;2024-03-23T02:47:41;24.92;;;5.38;;
53108;SDS011;39007;53.090;6.074;2024-03-23T02:50:07;25.38;;;5.68;;
53108;SDS011;39007;53.090;6.074;2024-03-23T02:52:34;23.98;;;5.07;;
53108;SDS011;39007;53.090;6.074;2024-03-23T02:55:00;19.83;;;4.78;;
53108;SDS011;39007;53.090;6.074;2024-03-23T02:57:30;24.33;;;5.20;;
53108;SDS011;39007;53.090;6.074;2024-03-23T02:59:56;26.98;;;5.50;;
53108;SDS011;39007;53.090;6.074;2024-03-23T03:02:22;23.92;;;5.18;;
53108;SDS011;39007;53.090;6.074;2024-03-23T03:04:48;27.10;;;5.55;;
53108;SDS011;39007;53.090;6.074;2024-03-23T03:07:14;21.40;;;4.85;;
53108;SDS011;39007;53.090;6.074;2024-03-23T03:09:40;23.52;;;4.95;;
53108;SDS011;39007;53.090;6.074;2024-03-23T03:12:06;29.10;;;5.38;;
53108;SDS011;39007;53.090;6.074;2024-03-23T03:14:33;28.67;;;5.15;;
53108;SDS011;39007;53.090;6.074;2024-03-23T03:16:59;24.67;;;4.60;;
53108;SDS011;39007;53.090;6.074;2024-03-23T03:19:25;24.23;;;5.05;;
53108;SDS011;39007;53.090;6.074;2024-03-23T03:21:52;19.73;;;4.18;;
53108;SDS011;39007;53.090;6.074;2024-03-23T03:24:18;23.02;;;4.25;;
53108;SDS011;39007;53.090;6.074;2024-03-23T03:26:44;25.20;;;4.85;;
53108;SDS011;39007;53.090;6.074;2024-03-23T03:29:10;23.60;;;4.68;;
53108;SDS011;39007;53.090;6.074;2024-03-23T03:31:37;24.58;;;4.75;;
53108;SDS011;39007;53.090;6.074;2024-03-23T03:34:03;19.92;;;4.50;;
53108;SDS011;39007;53.090;6.074;2024-03-23T03:36:29;20.75;;;4.05;;
53108;SDS011;39007;53.090;6.074;2024-03-23T03:38:55;21.52;;;4.90;;
53108;SDS011;39007;53.090;6.074;2024-03-23T03:41:21;23.60;;;4.28;;
53108;SDS011;39007;53.090;6.074;2024-03-23T03:43:47;23.25;;;5.68;;
53108;SDS011;39007;53.090;6.074;2024-03-23T03:46:13;26.23;;;4.85;;
53108;SDS011;39007;53.090;6.074;2024-03-23T03:48:39;24.10;;;4.93;;
53108;SDS011;39007;53.090;6.074;2024-03-23T03:51:05;20.33;;;4.28;;
53108;SDS011;39007;53.090;6.074;2024-03-23T03:53:31;30.27;;;4.85;;
53108;SDS011;39007;53.090;6.074;2024-03-23T03:56:00;23.02;;;4.78;;
53108;SDS011;39007;53.090;6.074;2024-03-23T03:58:27;21.10;;;4.57;;
53108;SDS011;39007;53.090;6.074;2024-03-23T04:00:53;20.58;;;4.20;;
53108;SDS011;39007;53.090;6.074;2024-03-23T04:03:19;22.98;;;5.22;;
53108;SDS011;39007;53.090;6.074;2024-03-23T04:05:52;23.13;;;4.65;;
53108;SDS011;39007;53.090;6.074;2024-03-23T04:08:18;24.15;;;4.82;;
53108;SDS011;39007;53.090;6.074;2024-03-23T04:10:44;23.58;;;4.97;;
53108;SDS011;39007;53.090;6.074;2024-03-23T04:13:11;25.67;;;4.75;;
53108;SDS011;39007;53.090;6.074;2024-03-23T04:15:37;22.83;;;4.80;;
53108;SDS011;39007;53.090;6.074;2024-03-23T04:18:03;20.50;;;4.35;;
53108;SDS011;39007;53.090;6.074;2024-03-23T04:20:29;19.35;;;4.20;;
53108;SDS011;39007;53.090;6.074;2024-03-23T04:22:55;22.08;;;4.65;;
53108;SDS011;39007;53.090;6.074;2024-03-23T04:25:21;19.75;;;4.20;;
53108;SDS011;39007;53.090;6.074;2024-03-23T04:27:47;22.83;;;4.18;;
53108;SDS011;39007;53.090;6.074;2024-03-23T04:30:13;21.23;;;4.18;;
53108;SDS011;39007;53.090;6.074;2024-03-23T04:32:40;19.38;;;4.40;;
53108;SDS011;39007;53.090;6.074;2024-03-23T04:35:07;22.45;;;4.78;;
53108;SDS011;39007;53.090;6.074;2024-03-23T04:37:36;23.08;;;5.03;;
53108;SDS011;39007;53.090;6.074;2024-03-23T04:40:02;23.15;;;4.50;;
53108;SDS011;39007;53.090;6.074;2024-03-23T04:42:29;28.20;;;4.70;;
53108;SDS011;39007;53.090;6.074;2024-03-23T04:44:55;20.20;;;4.18;;
53108;SDS011;39007;53.090;6.074;2024-03-23T04:47:21;26.05;;;4.57;;
53108;SDS011;39007;53.090;6.074;2024-03-23T04:49:48;19.42;;;4.28;;
53108;SDS011;39007;53.090;6.074;2024-03-23T04:52:14;28.63;;;4.93;;
53108;SDS011;39007;53.090;6.074;2024-03-23T04:54:40;25.38;;;4.30;;
53108;SDS011;39007;53.090;6.074;2024-03-23T04:57:07;18.63;;;4.38;;
53108;SDS011;39007;53.090;6.074;2024-03-23T04:59:33;25.30;;;4.15;;
53108;SDS011;39007;53.090;6.074;2024-03-23T05:01:59;19.20;;;4.47;;
53108;SDS011;39007;53.090;6.074;2024-03-23T05:04:25;18.23;;;3.97;;
53108;SDS011;39007;53.090;6.074;2024-03-23T05:06:51;19.25;;;4.13;;
53108;SDS011;39007;53.090;6.074;2024-03-23T05:09:18;24.02;;;4.10;;
53108;SDS011;39007;53.090;6.074;2024-03-23T05:11:45;23.42;;;4.20;;
53108;SDS011;39007;53.090;6.074;2024-03-23T05:14:12;21.55;;;4.00;;
53108;SDS011;39007;53.090;6.074;2024-03-23T05:16:38;20.23;;;3.88;;
53108;SDS011;39007;53.090;6.074;2024-03-23T05:19:04;29.00;;;4.65;;
53108;SDS011;39007;53.090;6.074;2024-03-23T05:21:30;25.27;;;4.63;;
53108;SDS011;39007;53.090;6.074;2024-03-23T05:23:56;22.80;;;4.20;;
53108;SDS011;39007;53.090;6.074;2024-03-23T05:26:22;20.50;;;3.83;;
53108;SDS011;39007;53.090;6.074;2024-03-23T05:28:49;24.58;;;4.40;;
53108;SDS011;39007;53.090;6.074;2024-03-23T05:31:24;21.50;;;4.30;;
53108;SDS011;39007;53.090;6.074;2024-03-23T05:33:50;26.15;;;4.18;;
53108;SDS011;39007;53.090;6.074;2024-03-23T05:36:17;20.40;;;4.05;;
53108;SDS011;39007;53.090;6.074;2024-03-23T05:38:43;22.40;;;4.13;;
53108;SDS011;39007;53.090;6.074;2024-03-23T05:41:09;19.77;;;4.20;;
53108;SDS011;39007;53.090;6.074;2024-03-23T05:43:35;23.17;;;4.07;;
53108;SDS011;39007;53.090;6.074;2024-03-23T05:46:01;17.75;;;3.55;;
53108;SDS011;39007;53.090;6.074;2024-03-23T05:48:27;16.45;;;3.70;;
53108;SDS011;39007;53.090;6.074;2024-03-23T05:50:55;18.30;;;3.58;;
53108;SDS011;39007;53.090;6.074;2024-03-23T05:53:22;21.98;;;4.13;;
53108;SDS011;39007;53.090;6.074;2024-03-23T05:55:48;22.75;;;3.97;;
53108;SDS011;39007;53.090;6.074;2024-03-23T05:58:17;16.17;;;3.70;;
53108;SDS011;39007;53.090;6.074;2024-03-23T06:00:43;19.33;;;4.05;;
53108;SDS011;39007;53.090;6.074;2024-03-23T06:03:10;17.38;;;3.70;;
53108;SDS011;39007;53.090;6.074;2024-03-23T06:05:36;21.60;;;3.85;;
53108;SDS011;39007;53.090;6.074;2024-03-23T06:08:02;19.85;;;3.75;;
53108;SDS011;39007;53.090;6.074;2024-03-23T06:10:28;25.35;;;4.18;;
53108;SDS011;39007;53.090;6.074;2024-03-23T06:12:54;17.75;;;4.00;;
53108;SDS011;39007;53.090;6.074;2024-03-23T06:15:21;18.63;;;3.45;;
53108;SDS011;39007;53.090;6.074;2024-03-23T06:17:47;20.45;;;3.67;;
53108;SDS011;39007;53.090;6.074;2024-03-23T06:20:13;18.48;;;4.03;;
53108;SDS011;39007;53.090;6.074;2024-03-23T06:22:40;20.15;;;3.92;;
53108;SDS011;39007;53.090;6.074;2024-03-23T06:25:06;14.63;;;3.80;;
53108;SDS011;39007;53.090;6.074;2024-03-23T06:27:32;21.55;;;3.88;;
53108;SDS011;39007;53.090;6.074;2024-03-23T06:29:59;19.40;;;4.18;;
53108;SDS011;39007;53.090;6.074;2024-03-23T06:32:25;16.67;;;3.95;;
53108;SDS011;39007;53.090;6.074;2024-03-23T06:34:51;15.57;;;3.05;;
53108;SDS011;39007;53.090;6.074;2024-03-23T06:37:17;14.10;;;3.10;;
53108;SDS011;39007;53.090;6.074;2024-03-23T06:39:45;13.23;;;3.10;;
53108;SDS011;39007;53.090;6.074;2024-03-23T06:42:11;11.13;;;2.88;;
53108;SDS011;39007;53.090;6.074;2024-03-23T06:44:38;12.52;;;2.63;;
53108;SDS011;39007;53.090;6.074;2024-03-23T06:47:05;13.30;;;3.00;;
53108;SDS011;39007;53.090;6.074;2024-03-23T06:49:31;13.10;;;3.08;;
53108;SDS011;39007;53.090;6.074;2024-03-23T06:51:57;12.05;;;2.80;;
53108;SDS011;39007;53.090;6.074;2024-03-23T06:54:24;12.50;;;3.08;;
53108;SDS011;39007;53.090;6.074;2024-03-23T06:56:50;16.20;;;2.65;;
53108;SDS011;39007;53.090;6.074;2024-03-23T06:59:16;11.13;;;2.53;;
53108;SDS011;39007;53.090;6.074;2024-03-23T07:01:42;14.95;;;2.63;;
53108;SDS011;39007;53.090;6.074;2024-03-23T07:04:08;10.60;;;2.40;;
53108;SDS011;39007;53.090;6.074;2024-03-23T07:06:35;13.38;;;2.63;;
53108;SDS011;39007;53.090;6.074;2024-03-23T07:09:07;10.57;;;2.53;;
53108;SDS011;39007;53.090;6.074;2024-03-23T07:11:33;11.25;;;2.78;;
53108;SDS011;39007;53.090;6.074;2024-03-23T07:13:59;9.20;;;2.83;;
53108;SDS011;39007;53.090;6.074;2024-03-23T07:16:26;14.00;;;2.88;;
53108;SDS011;39007;53.090;6.074;2024-03-23T07:18:52;14.50;;;3.00;;
53108;SDS011;39007;53.090;6.074;2024-03-23T07:21:18;13.82;;;2.97;;
53108;SDS011;39007;53.090;6.074;2024-03-23T07:23:44;13.00;;;2.67;;
53108;SDS011;39007;53.090;6.074;2024-03-23T07:26:11;9.95;;;2.70;;
53108;SDS011;39007;53.090;6.074;2024-03-23T07:28:37;12.30;;;2.70;;
53108;SDS011;39007;53.090;6.074;2024-03-23T07:31:08;16.63;;;3.47;;
53108;SDS011;39007;53.090;6.074;2024-03-23T07:33:35;11.30;;;3.38;;
53108;SDS011;39007;53.090;6.074;2024-03-23T07:36:01;13.52;;;2.92;;
53108;SDS011;39007;53.090;6.074;2024-03-23T07:38:28;12.23;;;2.85;;
53108;SDS011;39007;53.090;6.074;2024-03-23T07:41:06;17.95;;;3.95;;
53108;SDS011;39007;53.090;6.074;2024-03-23T07:43:33;13.43;;;2.92;;
53108;SDS011;39007;53.090;6.074;2024-03-23T07:46:00;12.95;;;3.55;;
53108;SDS011;39007;53.090;6.074;2024-03-23T07:48:26;11.63;;;3.63;;
53108;SDS011;39007;53.090;6.074;2024-03-23T07:50:56;17.88;;;3.88;;
53108;SDS011;39007;53.090;6.074;2024-03-23T07:53:22;15.80;;;3.72;;
53108;SDS011;39007;53.090;6.074;2024-03-23T07:55:55;16.02;;;3.67;;
53108;SDS011;39007;53.090;6.074;2024-03-23T07:58:21;19.55;;;4.22;;
53108;SDS011;39007;53.090;6.074;2024-03-23T08:00:47;19.42;;;3.92;;
53108;SDS011;39007;53.090;6.074;2024-03-23T08:03:13;19.70;;;3.75;;
53108;SDS011;39007;53.090;6.074;2024-03-23T08:05:39;18.63;;;3.95;;
53108;SDS011;39007;53.090;6.074;2024-03-23T08:08:05;18.20;;;3.85;;
53108;SDS011;39007;53.090;6.074;2024-03-23T08:10:31;20.42;;;4.47;;
53108;SDS011;39007;53.090;6.074;2024-03-23T08:12:57;18.25;;;4.05;;
53108;SDS011;39007;53.090;6.074;2024-03-23T08:15:23;20.05;;;4.05;;
53108;SDS011;39007;53.090;6.074;2024-03-23T08:17:50;17.55;;;3.75;;
53108;SDS011;39007;53.090;6.074;2024-03-23T08:20:16;19.83;;;3.90;;
53108;SDS011;39007;53.090;6.074;2024-03-23T08:22:42;16.45;;;4.07;;
53108;SDS011;39007;53.090;6.074;2024-03-23T08:25:08;21.42;;;4.07;;
53108;SDS011;39007;53.090;6.074;2024-03-23T08:27:34;15.93;;;4.13;;
53108;SDS011;39007;53.090;6.074;2024-03-23T08:30:00;21.02;;;4.55;;
53108;SDS011;39007;53.090;6.074;2024-03-23T08:32:26;26.63;;;4.40;;
53108;SDS011;39007;53.090;6.074;2024-03-23T08:34:52;21.48;;;4.13;;
53108;SDS011;39007;53.090;6.074;2024-03-23T08:37:18;20.25;;;4.10;;
53108;SDS011;39007;53.090;6.074;2024-03-23T08:39:44;17.92;;;3.63;;
53108;SDS011;39007;53.090;6.074;2024-03-23T08:42:10;21.88;;;4.75;;
53108;SDS011;39007;53.090;6.074;2024-03-23T08:44:36;16.75;;;3.53;;
53108;SDS011;39007;53.090;6.074;2024-03-23T08:47:02;18.23;;;3.90;;
53108;SDS011;39007;53.090;6.074;2024-03-23T08:49:28;21.27;;;3.70;;
53108;SDS011;39007;53.090;6.074;2024-03-23T08:51:55;16.40;;;3.75;;
53108;SDS011;39007;53.090;6.074;2024-03-23T08:54:21;11.10;;;3.05;;
53108;SDS011;39007;53.090;6.074;2024-03-23T08:56:48;12.57;;;3.22;;
53108;SDS011;39007;53.090;6.074;2024-03-23T08:59:14;15.70;;;3.42;;
53108;SDS011;39007;53.090;6.074;2024-03-23T09:01:40;12.95;;;3.13;;
53108;SDS011;39007;53.090;6.074;2024-03-23T09:04:06;20.20;;;3.60;;
53108;SDS011;39007;53.090;6.074;2024-03-23T09:06:32;15.10;;;3.50;;
53108;SDS011;39007;53.090;6.074;2024-03-23T09:08:58;14.45;;;3.40;;
53108;SDS011;39007;53.090;6.074;2024-03-23T09:11:24;13.98;;;3.13;;
53108;SDS011;39007;53.090;6.074;2024-03-23T09:13:50;13.65;;;3.08;;
53108;SDS011;39007;53.090;6.074;2024-03-23T09:16:16;8.23;;;2.60;;
53108;SDS011;39007;53.090;6.074;2024-03-23T09:18:43;9.45;;;2.50;;
53108;SDS011;39007;53.090;6.074;2024-03-23T09:21:13;10.00;;;2.90;;
53108;SDS011;39007;53.090;6.074;2024-03-23T09:23:39;14.95;;;3.42;;
53108;SDS011;39007;53.090;6.074;2024-03-23T09:26:06;14.13;;;3.15;;
53108;SDS011;39007;53.090;6.074;2024-03-23T09:28:35;10.82;;;2.83;;
53108;SDS011;39007;53.090;6.074;2024-03-23T09:31:07;16.85;;;3.22;;
53108;SDS011;39007;53.090;6.074;2024-03-23T09:33:35;13.35;;;3.03;;
53108;SDS011;39007;53.090;6.074;2024-03-23T09:36:04;12.38;;;3.15;;
53108;SDS011;39007;53.090;6.074;2024-03-23T09:38:31;12.80;;;2.85;;
53108;SDS011;39007;53.090;6.074;2024-03-23T09:40:57;13.10;;;2.70;;
53108;SDS011;39007;53.090;6.074;2024-03-23T09:43:24;15.00;;;4.22;;
53108;SDS011;39007;53.090;6.074;2024-03-23T09:45:50;12.77;;;3.08;;
53108;SDS011;39007;53.090;6.074;2024-03-23T09:48:16;14.93;;;3.00;;
53108;SDS011;39007;53.090;6.074;2024-03-23T09:50:43;13.27;;;3.17;;
53108;SDS011;39007;53.090;6.074;2024-03-23T09:53:10;13.48;;;2.72;;
53108;SDS011;39007;53.090;6.074;2024-03-23T09:55:37;12.00;;;3.17;;
53108;SDS011;39007;53.090;6.074;2024-03-23T09:58:04;14.02;;;2.70;;
53108;SDS011;39007;53.090;6.074;2024-03-23T10:00:30;21.48;;;3.95;;
53108;SDS011;39007;53.090;6.074;2024-03-23T10:02:57;18.08;;;3.50;;
53108;SDS011;39007;53.090;6.074;2024-03-23T10:05:27;18.85;;;3.67;;
53108;SDS011;39007;53.090;6.074;2024-03-23T10:07:53;16.85;;;3.35;;
53108;SDS011;39007;53.090;6.074;2024-03-23T10:10:19;22.63;;;3.95;;
53108;SDS011;39007;53.090;6.074;2024-03-23T10:12:49;17.13;;;3.55;;
53108;SDS011;39007;53.090;6.074;2024-03-23T10:15:18;15.43;;;3.72;;
53108;SDS011;39007;53.090;6.074;2024-03-23T10:17:45;15.43;;;3.50;;
53108;SDS011;39007;53.090;6.074;2024-03-23T10:20:11;19.17;;;4.70;;
53108;SDS011;39007;53.090;6.074;2024-03-23T10:22:37;17.73;;;3.83;;
53108;SDS011;39007;53.090;6.074;2024-03-23T10:25:08;8.38;;;2.30;;
53108;SDS011;39007;53.090;6.074;2024-03-23T10:27:34;13.88;;;2.70;;
53108;SDS011;39007;53.090;6.074;2024-03-23T10:30:10;14.88;;;2.70;;
53108;SDS011;39007;53.090;6.074;2024-03-23T10:32:37;12.43;;;2.50;;
53108;SDS011;39007;53.090;6.074;2024-03-23T10:35:16;13.00;;;2.80;;
53108;SDS011;39007;53.090;6.074;2024-03-23T10:37:44;9.15;;;2.67;;
53108;SDS011;39007;53.090;6.074;2024-03-23T10:40:11;12.55;;;2.40;;
53108;SDS011;39007;53.090;6.074;2024-03-23T10:42:38;9.68;;;2.92;;
53108;SDS011;39007;53.090;6.074;2024-03-23T10:45:04;12.52;;;2.80;;
53108;SDS011;39007;53.090;6.074;2024-03-23T10:47:34;12.73;;;2.88;;
53108;SDS011;39007;53.090;6.074;2024-03-23T10:50:01;12.55;;;2.85;;
53108;SDS011;39007;53.090;6.074;2024-03-23T10:52:27;10.13;;;3.08;;
53108;SDS011;39007;53.090;6.074;2024-03-23T10:54:53;15.20;;;3.25;;
53108;SDS011;39007;53.090;6.074;2024-03-23T10:57:25;11.70;;;2.80;;
53108;SDS011;39007;53.090;6.074;2024-03-23T10:59:52;12.10;;;2.63;;
53108;SDS011;39007;53.090;6.074;2024-03-23T11:02:19;11.30;;;3.10;;
53108;SDS011;39007;53.090;6.074;2024-03-23T11:04:46;11.05;;;2.78;;
53108;SDS011;39007;53.090;6.074;2024-03-23T11:09:50;13.50;;;2.92;;
53108;SDS011;39007;53.090;6.074;2024-03-23T11:17:22;13.95;;;2.97;;
53108;SDS011;39007;53.090;6.074;2024-03-23T11:20:00;11.77;;;3.20;;
53108;SDS011;39007;53.090;6.074;2024-03-23T11:25:15;14.45;;;3.28;;
53108;SDS011;39007;53.090;6.074;2024-03-23T11:27:42;11.73;;;3.03;;
53108;SDS011;39007;53.090;6.074;2024-03-23T11:30:12;15.77;;;3.53;;
53108;SDS011;39007;53.090;6.074;2024-03-23T11:32:39;13.13;;;2.92;;
53108;SDS011;39007;53.090;6.074;2024-03-23T11:35:05;14.35;;;3.70;;
53108;SDS011;39007;53.090;6.074;2024-03-23T11:37:31;10.25;;;2.60;;
53108;SDS011;39007;53.090;6.074;2024-03-23T11:39:57;8.60;;;2.17;;
53108;SDS011;39007;53.090;6.074;2024-03-23T11:42:23;7.78;;;1.98;;
53108;SDS011;39007;53.090;6.074;2024-03-23T11:44:49;6.80;;;1.75;;
53108;SDS011;39007;53.090;6.074;2024-03-23T11:47:16;11.90;;;2.45;;
53108;SDS011;39007;53.090;6.074;2024-03-23T11:49:42;7.60;;;2.25;;
53108;SDS011;39007;53.090;6.074;2024-03-23T11:52:08;11.57;;;2.22;;
53108;SDS011;39007;53.090;6.074;2024-03-23T11:54:34;9.25;;;1.63;;
53108;SDS011;39007;53.090;6.074;2024-03-23T11:57:04;9.27;;;2.17;;
53108;SDS011;39007;53.090;6.074;2024-03-23T11:59:39;10.15;;;1.83;;
53108;SDS011;39007;53.090;6.074;2024-03-23T12:02:09;8.15;;;2.15;;
53108;SDS011;39007;53.090;6.074;2024-03-23T12:04:36;14.32;;;3.28;;
53108;SDS011;39007;53.090;6.074;2024-03-23T12:07:15;10.25;;;2.75;;
53108;SDS011;39007;53.090;6.074;2024-03-23T12:09:45;15.00;;;3.30;;
53108;SDS011;39007;53.090;6.074;2024-03-23T12:12:14;14.27;;;3.47;;
53108;SDS011;39007;53.090;6.074;2024-03-23T12:14:44;16.05;;;3.70;;
53108;SDS011;39007;53.090;6.074;2024-03-23T12:17:14;13.50;;;3.42;;
53108;SDS011;39007;53.090;6.074;2024-03-23T12:19:41;12.77;;;3.03;;
53108;SDS011;39007;53.090;6.074;2024-03-23T12:22:07;9.00;;;2.63;;
53108;SDS011;39007;53.090;6.074;2024-03-23T12:24:34;9.50;;;1.83;;
53108;SDS011;39007;53.090;6.074;2024-03-23T12:27:01;12.25;;;2.22;;
53108;SDS011;39007;53.090;6.074;2024-03-23T12:29:28;10.77;;;2.80;;
53108;SDS011;39007;53.090;6.074;2024-03-23T12:31:54;9.43;;;2.00;;
53108;SDS011;39007;53.090;6.074;2024-03-23T12:34:21;5.28;;;1.73;;
53108;SDS011;39007;53.090;6.074;2024-03-23T12:36:47;8.40;;;1.90;;
53108;SDS011;39007;53.090;6.074;2024-03-23T12:39:13;10.95;;;2.38;;
53108;SDS011;39007;53.090;6.074;2024-03-23T12:41:39;16.92;;;3.33;;
53108;SDS011;39007;53.090;6.074;2024-03-23T12:44:05;18.42;;;3.45;;
53108;SDS011;39007;53.090;6.074;2024-03-23T12:46:33;12.13;;;2.85;;
53108;SDS011;39007;53.090;6.074;2024-03-23T12:48:59;13.77;;;3.03;;
53108;SDS011;39007;53.090;6.074;2024-03-23T12:51:25;10.20;;;2.75;;
53108;SDS011;39007;53.090;6.074;2024-03-23T12:53:51;13.38;;;2.90;;
53108;SDS011;39007;53.090;6.074;2024-03-23T12:56:17;15.50;;;2.97;;
53108;SDS011;39007;53.090;6.074;2024-03-23T12:58:43;13.73;;;2.83;;
53108;SDS011;39007;53.090;6.074;2024-03-23T13:01:09;17.42;;;3.33;;
53108;SDS011;39007;53.090;6.074;2024-03-23T13:03:35;17.98;;;3.58;;
53108;SDS011;39007;53.090;6.074;2024-03-23T13:06:02;15.80;;;3.58;;
53108;SDS011;39007;53.090;6.074;2024-03-23T13:08:32;18.23;;;4.18;;
53108;SDS011;39007;53.090;6.074;2024-03-23T13:10:58;12.75;;;3.13;;
53108;SDS011;39007;53.090;6.074;2024-03-23T13:13:24;17.40;;;3.95;;
53108;SDS011;39007;53.090;6.074;2024-03-23T13:15:50;18.00;;;4.30;;
53108;SDS011;39007;53.090;6.074;2024-03-23T13:18:16;15.10;;;4.57;;
53108;SDS011;39007;53.090;6.074;2024-03-23T13:20:42;17.85;;;4.32;;
53108;SDS011;39007;53.090;6.074;2024-03-23T13:23:09;13.68;;;2.97;;
53108;SDS011;39007;53.090;6.074;2024-03-23T13:25:35;16.73;;;4.60;;
53108;SDS011;39007;53.090;6.074;2024-03-23T13:28:02;14.85;;;3.47;;
53108;SDS011;39007;53.090;6.074;2024-03-23T13:30:28;16.33;;;3.55;;
53108;SDS011;39007;53.090;6.074;2024-03-23T13:32:55;11.77;;;3.15;;
53108;SDS011;39007;53.090;6.074;2024-03-23T13:35:21;13.88;;;3.35;;
53108;SDS011;39007;53.090;6.074;2024-03-23T13:37:47;15.32;;;3.10;;
53108;SDS011;39007;53.090;6.074;2024-03-23T13:40:13;14.93;;;3.88;;
53108;SDS011;39007;53.090;6.074;2024-03-23T13:42:39;15.27;;;4.07;;
53108;SDS011;39007;53.090;6.074;2024-03-23T13:45:06;17.65;;;3.60;;
53108;SDS011;39007;53.090;6.074;2024-03-23T13:47:32;14.43;;;3.42;;
53108;SDS011;39007;53.090;6.074;2024-03-23T13:49:58;14.85;;;3.30;;
53108;SDS011;39007;53.090;6.074;2024-03-23T13:52:24;19.20;;;3.45;;
53108;SDS011;39007;53.090;6.074;2024-03-23T13:54:51;18.00;;;3.60;;
53108;SDS011;39007;53.090;6.074;2024-03-23T13:57:17;13.57;;;3.30;;
53108;SDS011;39007;53.090;6.074;2024-03-23T13:59:46;15.00;;;3.50;;
53108;SDS011;39007;53.090;6.074;2024-03-23T14:02:14;13.48;;;3.35;;
53108;SDS011;39007;53.090;6.074;2024-03-23T14:04:40;13.65;;;3.33;;
53108;SDS011;39007;53.090;6.074;2024-03-23T14:07:06;14.45;;;3.35;;
53108;SDS011;39007;53.090;6.074;2024-03-23T14:09:35;19.92;;;4.07;;
53108;SDS011;39007;53.090;6.074;2024-03-23T14:12:01;17.80;;;3.65;;
53108;SDS011;39007;53.090;6.074;2024-03-23T14:14:28;19.58;;;3.85;;
53108;SDS011;39007;53.090;6.074;2024-03-23T14:16:54;17.33;;;3.42;;
53108;SDS011;39007;53.090;6.074;2024-03-23T14:19:20;21.40;;;3.83;;
53108;SDS011;39007;53.090;6.074;2024-03-23T14:21:46;16.27;;;3.42;;
53108;SDS011;39007;53.090;6.074;2024-03-23T14:24:12;16.30;;;3.50;;
53108;SDS011;39007;53.090;6.074;2024-03-23T14:26:38;16.90;;;4.18;;
53108;SDS011;39007;53.090;6.074;2024-03-23T14:29:06;16.42;;;3.83;;
53108;SDS011;39007;53.090;6.074;2024-03-23T14:31:34;17.80;;;3.67;;
53108;SDS011;39007;53.090;6.074;2024-03-23T14:34:00;12.27;;;3.10;;
53108;SDS011;39007;53.090;6.074;2024-03-23T14:36:26;13.85;;;2.83;;
53108;SDS011;39007;53.090;6.074;2024-03-23T14:38:52;10.00;;;2.20;;
53108;SDS011;39007;53.090;6.074;2024-03-23T14:41:18;8.48;;;2.40;;
53108;SDS011;39007;53.090;6.074;2024-03-23T14:43:44;12.60;;;2.60;;
53108;SDS011;39007;53.090;6.074;2024-03-23T14:46:13;9.57;;;2.63;;
53108;SDS011;39007;53.090;6.074;2024-03-23T14:48:41;15.98;;;3.15;;
53108;SDS011;39007;53.090;6.074;2024-03-23T14:51:08;13.63;;;3.00;;
53108;SDS011;39007;53.090;6.074;2024-03-23T14:53:37;14.20;;;3.42;;
53108;SDS011;39007;53.090;6.074;2024-03-23T14:56:05;14.73;;;3.22;;
53108;SDS011;39007;53.090;6.074;2024-03-23T14:58:31;15.63;;;2.92;;
53108;SDS011;39007;53.090;6.074;2024-03-23T15:01:03;16.60;;;3.92;;
53108;SDS011;39007;53.090;6.074;2024-03-23T15:03:29;16.80;;;3.85;;
53108;SDS011;39007;53.090;6.074;2024-03-23T15:05:56;18.83;;;3.70;;
53108;SDS011;39007;53.090;6.074;2024-03-23T15:08:22;16.00;;;3.35;;
53108;SDS011;39007;53.090;6.074;2024-03-23T15:10:48;16.65;;;4.00;;
53108;SDS011;39007;53.090;6.074;2024-03-23T15:13:15;14.18;;;4.05;;
53108;SDS011;39007;53.090;6.074;2024-03-23T15:15:41;11.43;;;2.97;;
53108;SDS011;39007;53.090;6.074;2024-03-23T15:18:11;13.55;;;3.03;;
53108;SDS011;39007;53.090;6.074;2024-03-23T15:20:38;13.93;;;3.15;;
53108;SDS011;39007;53.090;6.074;2024-03-23T15:23:04;17.05;;;3.42;;
53108;SDS011;39007;53.090;6.074;2024-03-23T15:25:30;16.15;;;3.55;;
53108;SDS011;39007;53.090;6.074;2024-03-23T15:27:57;13.45;;;3.00;;
53108;SDS011;39007;53.090;6.074;2024-03-23T15:30:24;12.98;;;2.92;;
53108;SDS011;39007;53.090;6.074;2024-03-23T15:32:50;14.07;;;3.17;;
53108;SDS011;39007;53.090;6.074;2024-03-23T15:35:17;17.73;;;3.50;;
53108;SDS011;39007;53.090;6.074;2024-03-23T15:37:44;15.40;;;3.55;;